sensor_id;sensor_type;location;lat;lon;timestamp;temperature;humidity
23671;DHT22;12012;51.998;7.614;2023-05-10T00:01:04;13.70;99.90
23671;DHT22;12012;51.998;7.614;2023-05-10T00:03:29;13.70;99.90
23671;DHT22;12012;51.998;7.614;2023-05-10T00:05:55;13.70;99.90
23671;DHT22;12012;51.998;7.614;2023-05-10T00:08:20;13.70;99.90
23671;DHT22;12012;51.998;7.614;2023-05-10T00:10:46;13.70;99.90
23671;DHT22;12012;51.998;7.614;2023-05-10T00:13:11;13.70;99.90
23671;DHT22;12012;51.998;7.614;2023-05-10T00:15:37;13.70;99.90
23671;DHT22;12012;51.998;7.614;2023-05-10T00:18:03;13.70;99.90
23671;DHT22;12012;51.998;7.614;2023-05-10T00:20:28;13.70;99.90
23671;DHT22;12012;51.998;7.614;2023-05-10T00:22:54;13.70;99.90
23671;DHT22;12012;51.998;7.614;2023-05-10T00:25:19;13.70;99.90
23671;DHT22;12012;51.998;7.614;2023-05-10T00:27:47;13.70;99.90
23671;DHT22;12012;51.998;7.614;2023-05-10T00:30:13;13.70;99.90
23671;DHT22;12012;51.998;7.614;2023-05-10T00:32:38;13.70;99.90
23671;DHT22;12012;51.998;7.614;2023-05-10T00:35:04;13.60;99.90
23671;DHT22;12012;51.998;7.614;2023-05-10T00:37:30;13.60;99.90
23671;DHT22;12012;51.998;7.614;2023-05-10T00:39:55;13.60;99.90
23671;DHT22;12012;51.998;7.614;2023-05-10T00:42:21;13.60;99.90
23671;DHT22;12012;51.998;7.614;2023-05-10T00:44:47;13.60;99.90
23671;DHT22;12012;51.998;7.614;2023-05-10T00:47:13;13.60;99.90
23671;DHT22;12012;51.998;7.614;2023-05-10T00:49:39;13.60;99.90
23671;DHT22;12012;51.998;7.614;2023-05-10T00:52:05;13.60;99.90
23671;DHT22;12012;51.998;7.614;2023-05-10T00:54:31;13.60;99.90
23671;DHT22;12012;51.998;7.614;2023-05-10T00:56:57;13.60;99.90
23671;DHT22;12012;51.998;7.614;2023-05-10T00:59:22;13.60;99.90
23671;DHT22;12012;51.998;7.614;2023-05-10T01:01:49;13.60;99.90
23671;DHT22;12012;51.998;7.614;2023-05-10T01:04:15;13.60;99.90
23671;DHT22;12012;51.998;7.614;2023-05-10T01:06:41;13.60;99.90
23671;DHT22;12012;51.998;7.614;2023-05-10T01:09:07;13.60;99.90
23671;DHT22;12012;51.998;7.614;2023-05-10T01:11:37;13.60;99.90
23671;DHT22;12012;51.998;7.614;2023-05-10T01:14:03;13.50;99.90
23671;DHT22;12012;51.998;7.614;2023-05-10T01:16:32;13.60;99.90
23671;DHT22;12012;51.998;7.614;2023-05-10T01:18:58;13.50;99.90
23671;DHT22;12012;51.998;7.614;2023-05-10T01:21:43;13.50;99.90
23671;DHT22;12012;51.998;7.614;2023-05-10T01:33:07;13.50;99.90
23671;DHT22;12012;51.998;7.614;2023-05-10T01:38:32;13.50;99.90
23671;DHT22;12012;51.998;7.614;2023-05-10T01:41:20;13.40;99.90
23671;DHT22;12012;51.998;7.614;2023-05-10T01:43:55;13.40;99.90
23671;DHT22;12012;51.998;7.614;2023-05-10T01:46:38;13.40;99.90
23671;DHT22;12012;51.998;7.614;2023-05-10T01:49:18;13.30;99.90
23671;DHT22;12012;51.998;7.614;2023-05-10T01:51:50;13.30;99.90
23671;DHT22;12012;51.998;7.614;2023-05-10T01:54:19;13.20;99.90
23671;DHT22;12012;51.998;7.614;2023-05-10T01:56:47;13.20;99.90
23671;DHT22;12012;51.998;7.614;2023-05-10T01:59:18;13.10;99.90
23671;DHT22;12012;51.998;7.614;2023-05-10T02:01:45;13.00;99.90
23671;DHT22;12012;51.998;7.614;2023-05-10T02:04:15;12.90;99.90
23671;DHT22;12012;51.998;7.614;2023-05-10T02:06:42;12.80;99.90
23671;DHT22;12012;51.998;7.614;2023-05-10T02:09:10;12.80;99.90
23671;DHT22;12012;51.998;7.614;2023-05-10T02:11:39;12.80;99.90
23671;DHT22;12012;51.998;7.614;2023-05-10T02:14:09;12.70;99.90
23671;DHT22;12012;51.998;7.614;2023-05-10T02:16:36;12.70;99.90
23671;DHT22;12012;51.998;7.614;2023-05-10T02:19:03;12.70;99.90
23671;DHT22;12012;51.998;7.614;2023-05-10T02:21:30;12.60;99.90
23671;DHT22;12012;51.998;7.614;2023-05-10T02:23:57;12.60;99.90
23671;DHT22;12012;51.998;7.614;2023-05-10T02:26:24;12.60;99.90
23671;DHT22;12012;51.998;7.614;2023-05-10T02:28:52;12.60;99.90
23671;DHT22;12012;51.998;7.614;2023-05-10T02:31:19;12.50;99.90
23671;DHT22;12012;51.998;7.614;2023-05-10T02:33:45;12.50;99.90
23671;DHT22;12012;51.998;7.614;2023-05-10T02:36:12;12.50;99.90
23671;DHT22;12012;51.998;7.614;2023-05-10T02:38:39;12.50;99.90
23671;DHT22;12012;51.998;7.614;2023-05-10T02:41:08;12.50;99.90
23671;DHT22;12012;51.998;7.614;2023-05-10T02:43:35;12.50;99.90
23671;DHT22;12012;51.998;7.614;2023-05-10T02:46:02;12.50;99.90
23671;DHT22;12012;51.998;7.614;2023-05-10T02:48:28;12.40;99.90
23671;DHT22;12012;51.998;7.614;2023-05-10T02:50:55;12.40;99.90
23671;DHT22;12012;51.998;7.614;2023-05-10T02:53:29;12.40;99.90
23671;DHT22;12012;51.998;7.614;2023-05-10T02:55:58;12.40;99.90
23671;DHT22;12012;51.998;7.614;2023-05-10T02:58:24;12.40;99.90
23671;DHT22;12012;51.998;7.614;2023-05-10T03:00:50;12.40;99.90
23671;DHT22;12012;51.998;7.614;2023-05-10T03:03:16;12.40;99.90
23671;DHT22;12012;51.998;7.614;2023-05-10T03:05:41;12.40;99.90
23671;DHT22;12012;51.998;7.614;2023-05-10T03:08:07;12.40;99.90
23671;DHT22;12012;51.998;7.614;2023-05-10T03:10:34;12.40;99.90
23671;DHT22;12012;51.998;7.614;2023-05-10T03:13:16;12.40;99.90
23671;DHT22;12012;51.998;7.614;2023-05-10T03:15:57;12.40;99.90
23671;DHT22;12012;51.998;7.614;2023-05-10T03:18:48;12.40;99.90
23671;DHT22;12012;51.998;7.614;2023-05-10T03:21:17;12.40;99.90
23671;DHT22;12012;51.998;7.614;2023-05-10T03:23:51;12.30;99.90
23671;DHT22;12012;51.998;7.614;2023-05-10T03:26:27;12.30;99.90
23671;DHT22;12012;51.998;7.614;2023-05-10T03:28:54;12.30;99.90
23671;DHT22;12012;51.998;7.614;2023-05-10T03:31:20;12.30;99.90
23671;DHT22;12012;51.998;7.614;2023-05-10T03:33:47;12.30;99.90
23671;DHT22;12012;51.998;7.614;2023-05-10T03:36:13;12.30;99.90
23671;DHT22;12012;51.998;7.614;2023-05-10T03:38:39;12.30;99.90
23671;DHT22;12012;51.998;7.614;2023-05-10T03:41:04;12.30;99.90
23671;DHT22;12012;51.998;7.614;2023-05-10T03:43:30;12.30;99.90
23671;DHT22;12012;51.998;7.614;2023-05-10T03:45:55;12.30;99.90
23671;DHT22;12012;51.998;7.614;2023-05-10T03:48:21;12.30;99.90
23671;DHT22;12012;51.998;7.614;2023-05-10T03:50:46;12.30;99.90
23671;DHT22;12012;51.998;7.614;2023-05-10T03:53:12;12.30;99.90
23671;DHT22;12012;51.998;7.614;2023-05-10T03:55:38;12.30;99.90
23671;DHT22;12012;51.998;7.614;2023-05-10T03:58:03;12.30;99.90
23671;DHT22;12012;51.998;7.614;2023-05-10T04:00:29;12.30;99.90
23671;DHT22;12012;51.998;7.614;2023-05-10T04:02:55;12.30;99.90
23671;DHT22;12012;51.998;7.614;2023-05-10T04:05:20;12.30;99.90
23671;DHT22;12012;51.998;7.614;2023-05-10T04:07:46;12.30;99.90
23671;DHT22;12012;51.998;7.614;2023-05-10T04:10:12;12.30;99.90
23671;DHT22;12012;51.998;7.614;2023-05-10T04:12:38;12.30;99.90
23671;DHT22;12012;51.998;7.614;2023-05-10T04:15:04;12.30;99.90
23671;DHT22;12012;51.998;7.614;2023-05-10T04:17:29;12.30;99.90
23671;DHT22;12012;51.998;7.614;2023-05-10T04:19:55;12.30;99.90
23671;DHT22;12012;51.998;7.614;2023-05-10T04:22:21;12.30;99.90
23671;DHT22;12012;51.998;7.614;2023-05-10T04:24:46;12.30;99.90
23671;DHT22;12012;51.998;7.614;2023-05-10T04:27:12;12.30;99.90
23671;DHT22;12012;51.998;7.614;2023-05-10T04:29:37;12.30;99.90
23671;DHT22;12012;51.998;7.614;2023-05-10T04:32:03;12.30;99.90
23671;DHT22;12012;51.998;7.614;2023-05-10T04:34:29;12.30;99.90
23671;DHT22;12012;51.998;7.614;2023-05-10T04:36:55;12.30;99.90
23671;DHT22;12012;51.998;7.614;2023-05-10T04:39:20;12.30;99.90
23671;DHT22;12012;51.998;7.614;2023-05-10T04:41:46;12.40;99.90
23671;DHT22;12012;51.998;7.614;2023-05-10T04:44:11;12.40;99.90
23671;DHT22;12012;51.998;7.614;2023-05-10T04:46:37;12.40;99.90
23671;DHT22;12012;51.998;7.614;2023-05-10T04:49:02;12.50;99.90
23671;DHT22;12012;51.998;7.614;2023-05-10T04:51:28;12.50;99.90
23671;DHT22;12012;51.998;7.614;2023-05-10T04:53:53;12.50;99.90
23671;DHT22;12012;51.998;7.614;2023-05-10T04:56:19;12.50;99.90
23671;DHT22;12012;51.998;7.614;2023-05-10T04:58:45;12.60;99.90
23671;DHT22;12012;51.998;7.614;2023-05-10T05:01:11;12.50;99.90
23671;DHT22;12012;51.998;7.614;2023-05-10T05:03:37;12.50;99.90
23671;DHT22;12012;51.998;7.614;2023-05-10T05:06:03;12.60;99.90
23671;DHT22;12012;51.998;7.614;2023-05-10T05:08:28;12.60;99.90
23671;DHT22;12012;51.998;7.614;2023-05-10T05:10:54;12.60;99.90
23671;DHT22;12012;51.998;7.614;2023-05-10T05:13:20;12.60;99.90
23671;DHT22;12012;51.998;7.614;2023-05-10T05:15:45;12.70;99.90
23671;DHT22;12012;51.998;7.614;2023-05-10T05:18:11;12.70;99.90
23671;DHT22;12012;51.998;7.614;2023-05-10T05:20:36;12.80;99.90
23671;DHT22;12012;51.998;7.614;2023-05-10T05:23:02;12.90;99.90
23671;DHT22;12012;51.998;7.614;2023-05-10T05:25:27;12.90;99.90
23671;DHT22;12012;51.998;7.614;2023-05-10T05:27:53;13.00;99.90
23671;DHT22;12012;51.998;7.614;2023-05-10T05:30:19;13.00;99.90
23671;DHT22;12012;51.998;7.614;2023-05-10T05:32:44;13.00;99.90
23671;DHT22;12012;51.998;7.614;2023-05-10T05:35:10;13.10;99.90
23671;DHT22;12012;51.998;7.614;2023-05-10T05:37:36;13.10;99.90
23671;DHT22;12012;51.998;7.614;2023-05-10T05:40:02;13.10;99.90
23671;DHT22;12012;51.998;7.614;2023-05-10T05:42:28;13.10;99.90
23671;DHT22;12012;51.998;7.614;2023-05-10T05:44:54;13.20;99.90
23671;DHT22;12012;51.998;7.614;2023-05-10T05:47:19;13.30;99.90
23671;DHT22;12012;51.998;7.614;2023-05-10T05:49:45;13.30;99.90
23671;DHT22;12012;51.998;7.614;2023-05-10T05:52:11;13.30;99.90
23671;DHT22;12012;51.998;7.614;2023-05-10T05:54:36;13.40;99.90
23671;DHT22;12012;51.998;7.614;2023-05-10T05:57:02;13.40;99.90
23671;DHT22;12012;51.998;7.614;2023-05-10T05:59:28;13.50;99.90
23671;DHT22;12012;51.998;7.614;2023-05-10T06:01:54;13.50;99.90
23671;DHT22;12012;51.998;7.614;2023-05-10T06:04:19;13.50;99.90
23671;DHT22;12012;51.998;7.614;2023-05-10T06:06:45;13.60;99.90
23671;DHT22;12012;51.998;7.614;2023-05-10T06:09:12;13.50;99.90
23671;DHT22;12012;51.998;7.614;2023-05-10T06:11:37;13.60;99.90
23671;DHT22;12012;51.998;7.614;2023-05-10T06:14:04;13.60;99.90
23671;DHT22;12012;51.998;7.614;2023-05-10T06:16:30;13.70;99.90
23671;DHT22;12012;51.998;7.614;2023-05-10T06:18:56;13.70;99.90
23671;DHT22;12012;51.998;7.614;2023-05-10T06:21:22;13.80;99.90
23671;DHT22;12012;51.998;7.614;2023-05-10T06:23:47;13.80;99.90
23671;DHT22;12012;51.998;7.614;2023-05-10T06:26:13;13.80;99.90
23671;DHT22;12012;51.998;7.614;2023-05-10T06:28:39;13.80;99.90
23671;DHT22;12012;51.998;7.614;2023-05-10T06:31:05;13.80;99.90
23671;DHT22;12012;51.998;7.614;2023-05-10T06:33:31;13.80;99.90
23671;DHT22;12012;51.998;7.614;2023-05-10T06:35:57;13.80;99.90
23671;DHT22;12012;51.998;7.614;2023-05-10T06:38:23;13.90;99.90
23671;DHT22;12012;51.998;7.614;2023-05-10T06:40:49;13.90;99.90
23671;DHT22;12012;51.998;7.614;2023-05-10T06:43:14;13.80;99.90
23671;DHT22;12012;51.998;7.614;2023-05-10T06:45:40;13.80;99.90
23671;DHT22;12012;51.998;7.614;2023-05-10T06:48:06;13.80;99.90
23671;DHT22;12012;51.998;7.614;2023-05-10T06:50:32;13.80;99.90
23671;DHT22;12012;51.998;7.614;2023-05-10T06:52:58;13.80;99.90
23671;DHT22;12012;51.998;7.614;2023-05-10T06:55:24;13.70;99.90
23671;DHT22;12012;51.998;7.614;2023-05-10T06:57:50;13.70;99.90
23671;DHT22;12012;51.998;7.614;2023-05-10T07:00:16;13.70;99.90
23671;DHT22;12012;51.998;7.614;2023-05-10T07:02:42;13.70;99.90
23671;DHT22;12012;51.998;7.614;2023-05-10T07:05:08;13.70;99.90
23671;DHT22;12012;51.998;7.614;2023-05-10T07:07:33;13.80;99.90
23671;DHT22;12012;51.998;7.614;2023-05-10T07:09:59;13.90;99.90
23671;DHT22;12012;51.998;7.614;2023-05-10T07:12:25;14.00;99.90
23671;DHT22;12012;51.998;7.614;2023-05-10T07:14:51;14.10;99.90
23671;DHT22;12012;51.998;7.614;2023-05-10T07:17:16;14.20;99.90
23671;DHT22;12012;51.998;7.614;2023-05-10T07:19:42;14.40;99.90
23671;DHT22;12012;51.998;7.614;2023-05-10T07:22:08;14.40;99.90
23671;DHT22;12012;51.998;7.614;2023-05-10T07:24:35;14.50;99.90
23671;DHT22;12012;51.998;7.614;2023-05-10T07:27:01;14.60;99.90
23671;DHT22;12012;51.998;7.614;2023-05-10T07:29:27;14.80;99.90
23671;DHT22;12012;51.998;7.614;2023-05-10T07:31:54;14.80;99.90
23671;DHT22;12012;51.998;7.614;2023-05-10T07:34:19;14.90;99.90
23671;DHT22;12012;51.998;7.614;2023-05-10T07:36:45;14.90;99.90
23671;DHT22;12012;51.998;7.614;2023-05-10T07:39:11;15.00;99.90
23671;DHT22;12012;51.998;7.614;2023-05-10T07:41:36;15.00;99.90
23671;DHT22;12012;51.998;7.614;2023-05-10T07:44:03;15.00;99.90
23671;DHT22;12012;51.998;7.614;2023-05-10T07:46:29;15.10;99.90
23671;DHT22;12012;51.998;7.614;2023-05-10T07:48:54;15.20;99.90
23671;DHT22;12012;51.998;7.614;2023-05-10T07:51:20;15.20;99.90
23671;DHT22;12012;51.998;7.614;2023-05-10T07:53:46;15.30;99.90
23671;DHT22;12012;51.998;7.614;2023-05-10T07:56:25;15.30;99.90
23671;DHT22;12012;51.998;7.614;2023-05-10T07:58:53;15.40;99.90
23671;DHT22;12012;51.998;7.614;2023-05-10T08:01:19;15.40;99.90
23671;DHT22;12012;51.998;7.614;2023-05-10T08:03:45;15.60;99.90
23671;DHT22;12012;51.998;7.614;2023-05-10T08:06:10;15.80;99.90
23671;DHT22;12012;51.998;7.614;2023-05-10T08:08:36;16.00;99.90
23671;DHT22;12012;51.998;7.614;2023-05-10T08:11:02;16.30;99.90
23671;DHT22;12012;51.998;7.614;2023-05-10T08:13:27;16.60;99.90
23671;DHT22;12012;51.998;7.614;2023-05-10T08:15:53;16.80;99.90
23671;DHT22;12012;51.998;7.614;2023-05-10T08:18:19;17.00;95.70
23671;DHT22;12012;51.998;7.614;2023-05-10T08:20:44;17.10;99.90
23671;DHT22;12012;51.998;7.614;2023-05-10T08:23:12;17.10;99.90
23671;DHT22;12012;51.998;7.614;2023-05-10T08:25:38;17.20;99.90
23671;DHT22;12012;51.998;7.614;2023-05-10T08:28:04;17.20;97.50
23671;DHT22;12012;51.998;7.614;2023-05-10T08:30:29;17.10;97.10
23671;DHT22;12012;51.998;7.614;2023-05-10T08:32:55;17.10;97.80
23671;DHT22;12012;51.998;7.614;2023-05-10T08:35:20;17.10;98.20
23671;DHT22;12012;51.998;7.614;2023-05-10T08:37:46;17.10;99.30
23671;DHT22;12012;51.998;7.614;2023-05-10T08:40:12;17.20;99.90
23671;DHT22;12012;51.998;7.614;2023-05-10T08:42:40;17.30;99.40
23671;DHT22;12012;51.998;7.614;2023-05-10T08:45:10;17.30;93.10
23671;DHT22;12012;51.998;7.614;2023-05-10T08:47:37;17.20;91.60
23671;DHT22;12012;51.998;7.614;2023-05-10T08:50:04;17.20;94.90
23671;DHT22;12012;51.998;7.614;2023-05-10T08:52:30;17.20;93.00
23671;DHT22;12012;51.998;7.614;2023-05-10T08:54:58;17.30;91.50
23671;DHT22;12012;51.998;7.614;2023-05-10T08:57:23;17.40;91.70
23671;DHT22;12012;51.998;7.614;2023-05-10T08:59:49;17.70;91.70
23671;DHT22;12012;51.998;7.614;2023-05-10T09:02:15;17.90;92.50
23671;DHT22;12012;51.998;7.614;2023-05-10T09:04:42;18.10;82.20
23671;DHT22;12012;51.998;7.614;2023-05-10T09:07:07;18.20;91.00
23671;DHT22;12012;51.998;7.614;2023-05-10T09:09:33;18.40;80.20
23671;DHT22;12012;51.998;7.614;2023-05-10T09:12:00;18.60;80.90
23671;DHT22;12012;51.998;7.614;2023-05-10T09:14:25;18.80;76.90
23671;DHT22;12012;51.998;7.614;2023-05-10T09:16:52;18.90;76.10
23671;DHT22;12012;51.998;7.614;2023-05-10T09:19:19;19.00;73.10
23671;DHT22;12012;51.998;7.614;2023-05-10T09:21:45;19.00;59.00
23671;DHT22;12012;51.998;7.614;2023-05-10T09:24:12;19.00;57.00
23671;DHT22;12012;51.998;7.614;2023-05-10T09:26:46;19.10;28.10
23671;DHT22;12012;51.998;7.614;2023-05-10T09:29:15;19.00;41.90
23671;DHT22;12012;51.998;7.614;2023-05-10T09:31:45;19.00;40.40
23671;DHT22;12012;51.998;7.614;2023-05-10T09:34:16;19.00;33.00
23671;DHT22;12012;51.998;7.614;2023-05-10T09:36:55;18.90;42.70
23671;DHT22;12012;51.998;7.614;2023-05-10T09:39:30;18.80;48.30
23671;DHT22;12012;51.998;7.614;2023-05-10T09:41:58;18.90;46.00
23671;DHT22;12012;51.998;7.614;2023-05-10T09:44:25;18.90;34.20
23671;DHT22;12012;51.998;7.614;2023-05-10T09:46:51;18.90;30.70
23671;DHT22;12012;51.998;7.614;2023-05-10T09:49:18;18.80;15.30
23671;DHT22;12012;51.998;7.614;2023-05-10T09:51:44;18.80;19.30
23671;DHT22;12012;51.998;7.614;2023-05-10T09:54:13;18.80;12.60
23671;DHT22;12012;51.998;7.614;2023-05-10T09:56:39;18.70;1.00
23671;DHT22;12012;51.998;7.614;2023-05-10T09:59:07;18.70;4.00
23671;DHT22;12012;51.998;7.614;2023-05-10T10:01:33;18.80;16.00
23671;DHT22;12012;51.998;7.614;2023-05-10T10:04:05;19.00;26.20
23671;DHT22;12012;51.998;7.614;2023-05-10T10:06:41;19.10;20.00
23671;DHT22;12012;51.998;7.614;2023-05-10T10:09:07;19.20;6.90
23671;DHT22;12012;51.998;7.614;2023-05-10T10:11:37;19.20;7.70
23671;DHT22;12012;51.998;7.614;2023-05-10T10:14:04;19.30;1.50
23671;DHT22;12012;51.998;7.614;2023-05-10T10:16:31;19.30;13.40
23671;DHT22;12012;51.998;7.614;2023-05-10T10:18:57;19.40;1.00
23671;DHT22;12012;51.998;7.614;2023-05-10T10:21:23;19.30;1.00
23671;DHT22;12012;51.998;7.614;2023-05-10T10:23:50;19.40;1.00
23671;DHT22;12012;51.998;7.614;2023-05-10T10:26:17;19.50;1.00
23671;DHT22;12012;51.998;7.614;2023-05-10T10:31:26;20.00;1.00
23671;DHT22;12012;51.998;7.614;2023-05-10T10:34:06;20.00;1.00
23671;DHT22;12012;51.998;7.614;2023-05-10T10:36:39;20.10;1.00
23671;DHT22;12012;51.998;7.614;2023-05-10T10:39:09;20.10;1.00
23671;DHT22;12012;51.998;7.614;2023-05-10T10:41:39;20.00;1.00
23671;DHT22;12012;51.998;7.614;2023-05-10T10:50:06;21.00;99.90
23671;DHT22;12012;51.998;7.614;2023-05-10T10:52:36;21.50;1.00
23671;DHT22;12012;51.998;7.614;2023-05-10T10:55:03;21.60;1.00
23671;DHT22;12012;51.998;7.614;2023-05-10T10:57:47;21.60;1.00
23671;DHT22;12012;51.998;7.614;2023-05-10T11:02:44;22.50;99.90
23671;DHT22;12012;51.998;7.614;2023-05-10T11:05:39;23.10;99.90
23671;DHT22;12012;51.998;7.614;2023-05-10T11:08:27;23.60;99.90
23671;DHT22;12012;51.998;7.614;2023-05-10T11:10:55;23.70;99.90
23671;DHT22;12012;51.998;7.614;2023-05-10T11:13:33;23.70;99.90
23671;DHT22;12012;51.998;7.614;2023-05-10T11:18:37;24.30;99.90
23671;DHT22;12012;51.998;7.614;2023-05-10T11:21:03;24.30;99.90
23671;DHT22;12012;51.998;7.614;2023-05-10T11:23:32;24.00;99.90
23671;DHT22;12012;51.998;7.614;2023-05-10T11:25:59;23.50;99.90
23671;DHT22;12012;51.998;7.614;2023-05-10T11:28:26;23.00;99.90
23671;DHT22;12012;51.998;7.614;2023-05-10T11:30:53;22.70;99.90
23671;DHT22;12012;51.998;7.614;2023-05-10T11:33:20;22.30;99.90
23671;DHT22;12012;51.998;7.614;2023-05-10T11:35:45;21.90;99.90
23671;DHT22;12012;51.998;7.614;2023-05-10T11:38:12;21.50;99.90
23671;DHT22;12012;51.998;7.614;2023-05-10T11:40:38;20.90;99.90
23671;DHT22;12012;51.998;7.614;2023-05-10T11:43:04;20.50;99.90
23671;DHT22;12012;51.998;7.614;2023-05-10T11:45:34;20.30;99.90
23671;DHT22;12012;51.998;7.614;2023-05-10T11:48:01;20.40;99.90
23671;DHT22;12012;51.998;7.614;2023-05-10T11:50:28;21.00;99.90
23671;DHT22;12012;51.998;7.614;2023-05-10T11:52:55;21.60;99.90
23671;DHT22;12012;51.998;7.614;2023-05-10T11:55:21;22.20;99.90
23671;DHT22;12012;51.998;7.614;2023-05-10T11:57:47;22.60;99.90
23671;DHT22;12012;51.998;7.614;2023-05-10T12:00:16;23.40;99.90
23671;DHT22;12012;51.998;7.614;2023-05-10T12:02:42;23.70;99.90
23671;DHT22;12012;51.998;7.614;2023-05-10T12:05:08;23.70;99.90
23671;DHT22;12012;51.998;7.614;2023-05-10T12:07:35;23.80;99.90
23671;DHT22;12012;51.998;7.614;2023-05-10T12:10:10;24.10;99.90
23671;DHT22;12012;51.998;7.614;2023-05-10T12:12:46;24.70;99.90
23671;DHT22;12012;51.998;7.614;2023-05-10T12:15:23;25.50;99.90
23671;DHT22;12012;51.998;7.614;2023-05-10T12:17:49;26.00;91.70
23671;DHT22;12012;51.998;7.614;2023-05-10T12:20:23;26.30;72.70
23671;DHT22;12012;51.998;7.614;2023-05-10T12:22:54;26.20;52.30
23671;DHT22;12012;51.998;7.614;2023-05-10T12:25:21;25.90;35.30
23671;DHT22;12012;51.998;7.614;2023-05-10T12:27:51;25.80;28.10
23671;DHT22;12012;51.998;7.614;2023-05-10T12:30:28;25.90;23.40
23671;DHT22;12012;51.998;7.614;2023-05-10T12:33:02;25.90;18.20
23671;DHT22;12012;51.998;7.614;2023-05-10T12:35:32;25.60;17.50
23671;DHT22;12012;51.998;7.614;2023-05-10T12:37:58;25.00;20.50
23671;DHT22;12012;51.998;7.614;2023-05-10T12:40:24;24.40;23.30
23671;DHT22;12012;51.998;7.614;2023-05-10T12:42:49;23.90;29.50
23671;DHT22;12012;51.998;7.614;2023-05-10T12:45:17;23.50;40.50
23671;DHT22;12012;51.998;7.614;2023-05-10T12:47:43;23.30;48.00
23671;DHT22;12012;51.998;7.614;2023-05-10T12:50:08;23.00;43.10
23671;DHT22;12012;51.998;7.614;2023-05-10T12:52:34;22.70;42.30
23671;DHT22;12012;51.998;7.614;2023-05-10T12:55:00;22.50;46.80
23671;DHT22;12012;51.998;7.614;2023-05-10T12:57:26;22.30;53.10
23671;DHT22;12012;51.998;7.614;2023-05-10T12:59:52;22.60;65.80
23671;DHT22;12012;51.998;7.614;2023-05-10T13:02:17;22.70;76.30
23671;DHT22;12012;51.998;7.614;2023-05-10T13:04:44;22.60;72.80
23671;DHT22;12012;51.998;7.614;2023-05-10T13:07:10;22.30;76.30
23671;DHT22;12012;51.998;7.614;2023-05-10T13:09:35;22.00;73.90
23671;DHT22;12012;51.998;7.614;2023-05-10T13:12:02;21.70;82.30
23671;DHT22;12012;51.998;7.614;2023-05-10T13:14:29;21.30;86.70
23671;DHT22;12012;51.998;7.614;2023-05-10T13:16:55;21.00;92.30
23671;DHT22;12012;51.998;7.614;2023-05-10T13:19:20;20.70;97.90
23671;DHT22;12012;51.998;7.614;2023-05-10T13:21:46;20.40;99.90
23671;DHT22;12012;51.998;7.614;2023-05-10T13:24:12;20.20;99.90
23671;DHT22;12012;51.998;7.614;2023-05-10T13:26:42;20.00;99.90
23671;DHT22;12012;51.998;7.614;2023-05-10T13:29:08;19.80;99.90
23671;DHT22;12012;51.998;7.614;2023-05-10T13:31:34;19.70;99.90
23671;DHT22;12012;51.998;7.614;2023-05-10T13:34:00;19.50;99.90
23671;DHT22;12012;51.998;7.614;2023-05-10T13:36:26;19.40;99.90
23671;DHT22;12012;51.998;7.614;2023-05-10T13:38:51;19.20;99.90
23671;DHT22;12012;51.998;7.614;2023-05-10T13:41:17;19.00;99.90
23671;DHT22;12012;51.998;7.614;2023-05-10T13:43:43;18.80;1.00
23671;DHT22;12012;51.998;7.614;2023-05-10T13:46:08;18.60;1.00
23671;DHT22;12012;51.998;7.614;2023-05-10T13:48:34;18.50;1.00
23671;DHT22;12012;51.998;7.614;2023-05-10T13:50:59;18.40;99.90
23671;DHT22;12012;51.998;7.614;2023-05-10T13:53:25;18.30;99.90
23671;DHT22;12012;51.998;7.614;2023-05-10T13:55:50;18.40;99.90
23671;DHT22;12012;51.998;7.614;2023-05-10T13:58:16;18.50;1.00
23671;DHT22;12012;51.998;7.614;2023-05-10T14:00:41;18.60;1.00
23671;DHT22;12012;51.998;7.614;2023-05-10T14:03:07;18.80;1.00
23671;DHT22;12012;51.998;7.614;2023-05-10T14:05:34;19.00;1.00
23671;DHT22;12012;51.998;7.614;2023-05-10T14:08:00;19.10;99.90
23671;DHT22;12012;51.998;7.614;2023-05-10T14:10:25;18.90;99.90
23671;DHT22;12012;51.998;7.614;2023-05-10T14:12:51;18.90;99.90
23671;DHT22;12012;51.998;7.614;2023-05-10T14:15:16;18.70;99.90
23671;DHT22;12012;51.998;7.614;2023-05-10T14:17:42;18.70;23.00
23671;DHT22;12012;51.998;7.614;2023-05-10T14:20:08;18.60;1.00
23671;DHT22;12012;51.998;7.614;2023-05-10T14:22:34;18.50;8.00
23671;DHT22;12012;51.998;7.614;2023-05-10T14:25:00;18.40;1.00
23671;DHT22;12012;51.998;7.614;2023-05-10T14:27:25;18.30;92.80
23671;DHT22;12012;51.998;7.614;2023-05-10T14:29:51;18.30;99.90
23671;DHT22;12012;51.998;7.614;2023-05-10T14:32:17;18.30;99.90
23671;DHT22;12012;51.998;7.614;2023-05-10T14:34:42;18.30;99.90
23671;DHT22;12012;51.998;7.614;2023-05-10T14:37:10;18.50;99.90
23671;DHT22;12012;51.998;7.614;2023-05-10T14:39:36;19.10;97.70
23671;DHT22;12012;51.998;7.614;2023-05-10T14:42:03;19.70;1.00
23671;DHT22;12012;51.998;7.614;2023-05-10T14:44:28;20.40;1.00
23671;DHT22;12012;51.998;7.614;2023-05-10T14:46:54;20.60;99.90
23671;DHT22;12012;51.998;7.614;2023-05-10T14:49:20;20.60;99.90
23671;DHT22;12012;51.998;7.614;2023-05-10T14:51:48;20.50;99.90
23671;DHT22;12012;51.998;7.614;2023-05-10T14:54:13;20.40;99.90
23671;DHT22;12012;51.998;7.614;2023-05-10T14:59:04;20.20;99.90
23671;DHT22;12012;51.998;7.614;2023-05-10T15:01:30;20.40;99.90
23671;DHT22;12012;51.998;7.614;2023-05-10T15:03:58;20.50;99.90
23671;DHT22;12012;51.998;7.614;2023-05-10T15:06:29;20.80;99.90
23671;DHT22;12012;51.998;7.614;2023-05-10T15:08:55;21.10;99.90
23671;DHT22;12012;51.998;7.614;2023-05-10T15:11:21;21.20;99.90
23671;DHT22;12012;51.998;7.614;2023-05-10T15:13:46;21.40;99.90
23671;DHT22;12012;51.998;7.614;2023-05-10T15:16:12;21.60;99.90
23671;DHT22;12012;51.998;7.614;2023-05-10T15:18:37;22.00;99.90
23671;DHT22;12012;51.998;7.614;2023-05-10T15:21:03;22.40;99.90
23671;DHT22;12012;51.998;7.614;2023-05-10T15:23:29;22.60;99.90
23671;DHT22;12012;51.998;7.614;2023-05-10T15:25:55;22.60;99.90
23671;DHT22;12012;51.998;7.614;2023-05-10T15:28:21;22.50;99.90
23671;DHT22;12012;51.998;7.614;2023-05-10T15:30:46;22.30;99.90
23671;DHT22;12012;51.998;7.614;2023-05-10T15:33:12;22.20;99.90
23671;DHT22;12012;51.998;7.614;2023-05-10T15:35:37;22.20;99.90
23671;DHT22;12012;51.998;7.614;2023-05-10T15:38:05;22.10;99.90
23671;DHT22;12012;51.998;7.614;2023-05-10T15:40:31;22.10;99.90
23671;DHT22;12012;51.998;7.614;2023-05-10T15:42:56;22.30;99.90
23671;DHT22;12012;51.998;7.614;2023-05-10T15:45:22;22.50;99.90
23671;DHT22;12012;51.998;7.614;2023-05-10T15:47:47;22.70;99.90
23671;DHT22;12012;51.998;7.614;2023-05-10T15:50:14;22.90;99.90
23671;DHT22;12012;51.998;7.614;2023-05-10T15:52:40;23.00;99.90
23671;DHT22;12012;51.998;7.614;2023-05-10T15:55:07;23.00;98.10
23671;DHT22;12012;51.998;7.614;2023-05-10T15:57:41;22.90;86.70
23671;DHT22;12012;51.998;7.614;2023-05-10T16:00:11;22.90;69.60